Clarksville, Virginia
Current Conditions -  °F | °C
As of 11:55 AM on Monday 22 Dec 2014 (Local Time) from KW63 Reporting Station
Overcast Overcast  
Wind Chill: 31°   Ceiling: 400
Heat Index: 36°   Visibility: 1.2mi
Dew Point: 34°   Wind: 6mph
Humidity: 93%   Direction: 360°N
Pressure: 30.15"   Gusts: NA
Location:  36.62°N, 78.56°W
Report Text: KW63 221655Z AUTO 36005KT 1 1/4SM OVC004 02/01 A3015 RMK AO1
Loading
Personal Weather Stations






























Interactive Weather Map New forecast layout! Learn more

10-Day Weather Forecast

Advertisements
Track Severe Weather on mobile